EGMCEBAW

Guest
Details From EGMC - Southend
To EBAW - Antwerp Deurne
Flight Number -
Tags generated
Created
Modified
Stats Distance 143 nm / 265 km
Max Altitude 0 ft / 0 m
Waypoints 3
Social Downloads 0
Likes 0
Share VATSIM

Download

Looking for another format? Having issues loading an existing format? Contact us
Advertisement - Login to hide

Notes

Basic altitude profile: - Ascent Rate: 1500ft/min - Ascent Speed: 135kts - Cruise Altitude: 75ft - Cruise Speed: 160kts - Descent Rate: 1500ft/min - Descent Speed: 160kts

Route

EGMC RAPIX EBAW

ID Type Via Altitude Latitude Longitude Leg Dist Tot Dist Heading (true) Name
O EGMC APT - 0 ft / 0 m 51.57144˚ 0.69558˚ - 0 nm - Southend
RAPIX FIX - 0 ft / 0 m 51.44306˚ 2.00000˚ 49 nm 49 nm 98° / 99° -
O EBAW APT - 0 ft / 0 m 51.19065˚ 4.46378˚ 93 nm 143 nm 98° / 100° Antwerp Deurne

Altitude Profile

Advertisement - Login to hide

EGMC

Details ICAO EGMC (SEN)
Name Southend
Region United Kingdom
Timezone Europe/London (UTC+0.0)
Stats Elevation 49 ft / 15 m (AMSL)
Location 51.571443° 0.695583°
Runways 1
Magnetic Variation 0.170° W

METAR

EGMC 162050Z 30006KT CAVOK 01/M00 Q1020

Decode

TAF

Not found

Departure Runways

ID Width Length Bearing (true) Bearing (mag) Surface Threshold Offset Overrun Length
06 121 ft / 37 m 5,230 ft / 1,594 m 54.10° 54.27° Asphalt 558 ft / 170 m 0 ft / 0 m
24 121 ft / 37 m 5,230 ft / 1,594 m 234.11° 234.28° Asphalt 466 ft / 142 m 0 ft / 0 m

EBAW

Details ICAO EBAW (ANR)
Name Antwerp Deurne
Region Belgium
Timezone Europe/Brussels (UTC+1.0)
Stats Elevation 39 ft / 12 m (AMSL)
Location 51.190654° 4.463776°
Runways 2
Magnetic Variation 1.099° E

METAR

EBAW 162050Z 26007KT 9999 FEW024 03/00 Q1018 NOSIG

Decode

TAF

Not found

Destination Runways

ID Width Length Bearing (true) Bearing (mag) Surface Threshold Offset Overrun Length
11 148 ft / 45 m 4,931 ft / 1,503 m 109.83° 108.73° Asphalt 472 ft / 144 m 0 ft / 0 m
11L 164 ft / 50 m 3,317 ft / 1,011 m 109.83° 108.73° Grass 0 ft / 0 m 0 ft / 0 m
29 148 ft / 45 m 4,931 ft / 1,503 m 289.85° 288.75° Asphalt 400 ft / 122 m 0 ft / 0 m
29R 164 ft / 50 m 3,317 ft / 1,011 m 289.85° 288.75° Grass 0 ft / 0 m 0 ft / 0 m

Approach Navaids

Runway Type Ident Frequency Range Bearing (true) Bearing (mag) Slope Elevation
29 Localiser IAD 111.75 MHz 18 nm / 33 km 289.64° 288.54° - 39 ft / 12 m (AMSL)
29 Glidescope IAD 111.75 MHz 10 nm / 19 km 289.84° 288.74° 3.00° 39 ft / 12 m (AMSL)
29 DME IAD 111.75 MHz 18 nm / 33 km - - - 39 ft / 12 m (AMSL)

Popular Alternatives